createdAt,value
2022-10-23T00:00:07.279Z,15.3571
2022-10-23T00:01:07.265Z,15.4286
2022-10-23T00:02:07.363Z,15.5
2022-10-23T00:03:07.325Z,15.6429
2022-10-23T00:04:07.351Z,15.6429
2022-10-23T00:05:07.382Z,15.7143
2022-10-23T00:06:07.408Z,15.7143
2022-10-23T00:07:07.442Z,15.7857
2022-10-23T00:08:07.470Z,15.7857
2022-10-23T00:09:07.497Z,15.8571
2022-10-23T00:10:07.520Z,15.8571
2022-10-23T00:11:07.548Z,15.9286
2022-10-23T00:12:07.574Z,16
2022-10-23T00:13:07.610Z,16
2022-10-23T00:14:07.639Z,16.0714
2022-10-23T00:15:07.668Z,16.0714
2022-10-23T00:16:07.708Z,16.1429
2022-10-23T00:17:07.725Z,16.1429
2022-10-23T00:18:07.756Z,16.1429
2022-10-23T00:19:07.790Z,16.1429
2022-10-23T00:20:07.821Z,16.2143
2022-10-23T00:21:07.857Z,16.2143
2022-10-23T00:22:07.894Z,16.2143
2022-10-23T00:23:07.929Z,16.2857
2022-10-23T00:25:07.998Z,16.3571
2022-10-23T00:26:08.026Z,16.3571
2022-10-23T00:27:08.053Z,16.3571
2022-10-23T00:28:08.085Z,16.3571
2022-10-23T00:29:08.121Z,16.3571
2022-10-23T00:30:08.150Z,16.3571
2022-10-23T00:31:08.181Z,16.3571
2022-10-23T00:32:08.215Z,16.4286
2022-10-23T00:33:08.241Z,16.4286
2022-10-23T00:34:08.573Z,16.4286
2022-10-23T00:35:08.302Z,16.5
2022-10-23T00:36:08.328Z,16.5
2022-10-23T00:37:08.361Z,16.5714
2022-10-23T00:38:08.395Z,16.5714
2022-10-23T00:39:08.428Z,16.5714
2022-10-23T00:40:08.463Z,16.6429
2022-10-23T00:41:08.489Z,16.6429
2022-10-23T00:42:08.521Z,16.7143
2022-10-23T00:43:08.552Z,16.7143
2022-10-23T00:44:08.579Z,16.7143
2022-10-23T00:45:08.602Z,16.7857
2022-10-23T00:46:08.643Z,16.7857
2022-10-23T00:47:08.672Z,16.7857
2022-10-23T00:48:08.708Z,16.8571
2022-10-23T00:49:08.749Z,16.8571
2022-10-23T00:50:08.761Z,16.8571
2022-10-23T00:51:08.791Z,16.8571
2022-10-23T00:52:08.818Z,16.9286
2022-10-23T00:53:08.850Z,16.8571
2022-10-23T00:54:23.972Z,16.8571
2022-10-23T00:55:08.913Z,16.8571
2022-10-23T00:56:08.939Z,16.8571
2022-10-23T00:57:08.974Z,16.8571
2022-10-23T00:58:09.005Z,16.8571
2022-10-23T00:59:09.032Z,16.8571
2022-10-23T01:00:09.065Z,16.8571
2022-10-23T01:01:09.210Z,16.7857
2022-10-23T01:02:09.287Z,16.8571
2022-10-23T01:03:09.171Z,16.8571
2022-10-23T01:04:09.195Z,16.8571
2022-10-23T01:05:09.221Z,16.8571
2022-10-23T01:06:09.261Z,16.8571
2022-10-23T01:07:09.284Z,16.8571
2022-10-23T01:08:09.313Z,16.9286
2022-10-23T01:09:09.346Z,16.8571
2022-10-23T01:10:09.376Z,16.8571
2022-10-23T01:11:09.411Z,16.8571
2022-10-23T01:12:09.438Z,16.7857
2022-10-23T01:13:09.471Z,16.7143
2022-10-23T01:14:09.519Z,16.6429
2022-10-23T01:15:09.532Z,16.5714
2022-10-23T01:16:09.561Z,16.5
2022-10-23T01:17:09.595Z,16.4286
2022-10-23T01:18:09.625Z,16.3571
2022-10-23T01:19:09.651Z,16.2857
2022-10-23T01:20:09.690Z,16.2143
2022-10-23T01:21:09.722Z,16.1429
2022-10-23T01:22:09.754Z,16.0714
2022-10-23T01:23:09.791Z,16.0714
2022-10-23T01:24:09.825Z,16
2022-10-23T01:25:09.859Z,15.9286
2022-10-23T01:26:09.908Z,15.8571
2022-10-23T01:27:09.940Z,15.8571
2022-10-23T01:28:09.975Z,15.7857
2022-10-23T01:29:10.012Z,15.7857
2022-10-23T01:30:10.057Z,15.7143
2022-10-23T01:31:10.098Z,15.6429
2022-10-23T01:32:10.134Z,15.6429
2022-10-23T01:33:10.162Z,15.5714
2022-10-23T01:34:10.199Z,15.5714
2022-10-23T01:35:10.231Z,15.5
2022-10-23T01:36:10.271Z,15.5
2022-10-23T01:37:10.307Z,15.4286
2022-10-23T01:38:10.352Z,15.4286
2022-10-23T01:39:10.387Z,15.4286
2022-10-23T01:40:10.427Z,15.3571
2022-10-23T01:41:10.461Z,15.3571
2022-10-23T01:42:10.496Z,15.3571
2022-10-23T01:43:10.530Z,15.3571
2022-10-23T01:44:10.569Z,15.2857
2022-10-23T01:45:10.609Z,15.2857
2022-10-23T01:46:10.639Z,15.2857
2022-10-23T01:47:10.762Z,15.2857
2022-10-23T01:48:10.727Z,15.2143
2022-10-23T01:49:10.760Z,15.2143
2022-10-23T01:50:10.802Z,15.1429
2022-10-23T01:51:10.846Z,15.1429
2022-10-23T01:52:10.883Z,15.0714
2022-10-23T01:53:10.916Z,15.0714
2022-10-23T01:54:10.953Z,15.0714
2022-10-23T01:55:11.000Z,15
2022-10-23T01:56:11.043Z,15
2022-10-23T01:57:11.073Z,15
2022-10-23T01:58:11.091Z,15
2022-10-23T01:59:11.136Z,15
2022-10-23T02:00:11.175Z,15
2022-10-23T02:01:11.353Z,15
2022-10-23T02:02:11.389Z,15
2022-10-23T02:03:11.277Z,15
2022-10-23T02:04:11.305Z,15
2022-10-23T02:05:11.336Z,15
2022-10-23T02:06:11.361Z,15
2022-10-23T02:07:11.390Z,15
2022-10-23T02:08:11.423Z,15
2022-10-23T02:09:11.453Z,15.0714
2022-10-23T02:10:11.475Z,15
2022-10-23T02:11:11.514Z,15
2022-10-23T02:12:11.555Z,15
2022-10-23T02:13:11.576Z,15
2022-10-23T02:14:11.609Z,15
2022-10-23T02:15:11.646Z,15
2022-10-23T02:16:11.697Z,15
2022-10-23T02:17:11.717Z,15
2022-10-23T02:18:11.749Z,14.9286
2022-10-23T02:19:11.787Z,14.9286
2022-10-23T02:20:11.834Z,14.9286
2022-10-23T02:21:11.862Z,14.9286
2022-10-23T02:22:11.888Z,14.9286
2022-10-23T02:23:11.931Z,14.9286
2022-10-23T02:24:11.976Z,14.9286
2022-10-23T02:25:12.006Z,14.8571
2022-10-23T02:26:12.041Z,14.8571
2022-10-23T02:27:12.080Z,14.8571
2022-10-23T02:28:12.119Z,14.7857
2022-10-23T02:29:12.149Z,14.8571
2022-10-23T02:30:12.174Z,14.7857
2022-10-23T02:31:12.217Z,14.7857
2022-10-23T02:32:12.259Z,14.7857
2022-10-23T02:33:12.296Z,14.7857
2022-10-23T02:34:12.321Z,14.7857
2022-10-23T02:35:12.362Z,14.7143
2022-10-23T02:36:12.411Z,14.7143
2022-10-23T02:37:12.492Z,14.6429
2022-10-23T02:38:12.470Z,14.6429
2022-10-23T02:39:12.509Z,14.6429
2022-10-23T02:40:12.556Z,14.5714
2022-10-23T02:41:12.590Z,14.5714
2022-10-23T02:42:12.621Z,14.5714
2022-10-23T02:43:12.661Z,14.5
2022-10-23T02:44:12.718Z,14.5
2022-10-23T02:45:12.744Z,14.4286
2022-10-23T02:46:12.781Z,14.4286
2022-10-23T02:47:12.814Z,14.4286
2022-10-23T02:48:12.852Z,14.3571
2022-10-23T02:49:12.879Z,14.3571
2022-10-23T02:50:12.907Z,14.3571
2022-10-23T02:51:12.946Z,14.2857
2022-10-23T02:52:12.990Z,14.2857
2022-10-23T02:53:13.024Z,14.2857
2022-10-23T02:54:13.065Z,14.2143
2022-10-23T02:55:13.100Z,14.2143
2022-10-23T02:56:13.146Z,14.1429
2022-10-23T02:57:13.174Z,14.1429
2022-10-23T02:58:13.197Z,14.1429
2022-10-23T02:59:13.234Z,14.0714
2022-10-23T03:00:13.283Z,14.0714
2022-10-23T03:01:13.396Z,14.0714
2022-10-23T03:02:13.472Z,14.0714
2022-10-23T03:03:13.369Z,14.0714
2022-10-23T03:04:13.409Z,14
2022-10-23T03:05:13.433Z,14
2022-10-23T03:06:13.465Z,14
2022-10-23T03:07:13.503Z,14
2022-10-23T03:08:13.554Z,14
2022-10-23T03:09:13.581Z,14
2022-10-23T03:10:13.620Z,13.9286
2022-10-23T03:11:13.672Z,13.9286
2022-10-23T03:12:13.701Z,13.9286
2022-10-23T03:13:13.725Z,13.9286
2022-10-23T03:14:13.768Z,13.9286
2022-10-23T03:15:13.815Z,13.8571
2022-10-23T03:16:13.854Z,13.8571
2022-10-23T03:17:13.882Z,13.8571
2022-10-23T03:18:13.908Z,13.7857
2022-10-23T03:19:13.969Z,13.7857
2022-10-23T03:20:13.997Z,13.7857
2022-10-23T03:21:14.027Z,13.7857
2022-10-23T03:22:14.063Z,13.7857
2022-10-23T03:23:14.107Z,13.7857
2022-10-23T03:24:14.136Z,13.7857
2022-10-23T03:25:14.170Z,13.7857
2022-10-23T03:26:14.210Z,13.7857
2022-10-23T03:27:14.252Z,13.7143
2022-10-23T03:28:14.281Z,13.7143
2022-10-23T03:29:14.316Z,13.7143
2022-10-23T03:30:14.358Z,13.7143
2022-10-23T03:31:14.392Z,13.7143
2022-10-23T03:32:14.434Z,13.7143
2022-10-23T03:33:14.447Z,13.6429
2022-10-23T03:34:14.490Z,13.6429
2022-10-23T03:35:14.530Z,13.6429
2022-10-23T03:36:14.552Z,13.6429
2022-10-23T03:37:14.586Z,13.6429
2022-10-23T03:38:14.621Z,13.5714
2022-10-23T03:39:14.660Z,13.5714
2022-10-23T03:40:14.683Z,13.5714
2022-10-23T03:41:14.729Z,13.5714
2022-10-23T03:42:14.766Z,13.5714
2022-10-23T03:43:14.803Z,13.5
2022-10-23T03:44:14.843Z,13.5
2022-10-23T03:45:14.886Z,13.5
2022-10-23T03:46:14.927Z,13.5
2022-10-23T03:47:14.958Z,13.5
2022-10-23T03:48:14.994Z,13.5
2022-10-23T03:49:15.040Z,13.4286
2022-10-23T03:50:15.075Z,13.4286
2022-10-23T03:51:15.104Z,13.4286
2022-10-23T03:52:15.245Z,13.4286
2022-10-23T03:53:15.187Z,13.3571
2022-10-23T03:54:15.224Z,13.3571
2022-10-23T03:55:15.259Z,13.3571
2022-10-23T03:56:15.298Z,13.3571
2022-10-23T03:57:15.342Z,13.3571
2022-10-23T03:58:15.373Z,13.3571
2022-10-23T03:59:15.411Z,13.2857
2022-10-23T04:00:15.456Z,13.2857
2022-10-23T04:01:15.558Z,13.2857
2022-10-23T04:02:15.564Z,13.2143
2022-10-23T04:03:15.559Z,13.2143
2022-10-23T04:04:15.605Z,13.2143
2022-10-23T04:05:15.654Z,13.2143
2022-10-23T04:06:15.684Z,13.2143
2022-10-23T04:07:15.728Z,13.1429
2022-10-23T04:08:19.193Z,13.1429
2022-10-23T04:09:15.809Z,13.1429
2022-10-23T04:10:15.840Z,13.0714
2022-10-23T04:11:15.879Z,13.0714
2022-10-23T04:12:15.923Z,13.0714
2022-10-23T04:13:15.958Z,13.0714
2022-10-23T04:14:15.993Z,13
2022-10-23T04:15:16.026Z,13.0714
2022-10-23T04:16:16.067Z,13
2022-10-23T04:17:16.134Z,13
2022-10-23T04:18:16.136Z,13
2022-10-23T04:19:16.180Z,13
2022-10-23T04:20:16.210Z,12.9286
2022-10-23T04:21:16.249Z,12.9286
2022-10-23T04:22:16.288Z,12.9286
2022-10-23T04:23:16.328Z,12.9286
2022-10-23T04:24:16.362Z,12.8571
2022-10-23T04:25:16.396Z,12.8571
2022-10-23T04:26:16.427Z,12.8571
2022-10-23T04:27:16.466Z,12.8571
2022-10-23T04:28:16.494Z,12.8571
2022-10-23T04:29:16.529Z,12.7857
2022-10-23T04:30:16.572Z,12.7857
2022-10-23T04:31:16.590Z,12.7857
2022-10-23T04:32:16.614Z,12.7857
2022-10-23T04:33:16.645Z,12.7143
2022-10-23T04:34:16.681Z,12.7143
2022-10-23T04:35:16.715Z,12.6429
2022-10-23T04:36:16.750Z,12.6429
2022-10-23T04:37:16.792Z,12.6429
2022-10-23T04:38:16.821Z,12.6429
2022-10-23T04:39:16.850Z,12.6429
2022-10-23T04:40:16.879Z,12.6429
2022-10-23T04:41:16.905Z,12.6429
2022-10-23T04:42:16.982Z,12.5714
2022-10-23T04:43:16.970Z,12.5714
2022-10-23T04:44:17.005Z,12.5714
2022-10-23T04:45:17.039Z,12.5714
2022-10-23T04:46:17.069Z,12.5
2022-10-23T04:47:17.095Z,12.5
2022-10-23T04:48:17.136Z,12.5
2022-10-23T04:49:17.153Z,12.4286
2022-10-23T04:50:17.188Z,12.4286
2022-10-23T04:51:17.229Z,12.4286
2022-10-23T04:52:17.258Z,12.4286
2022-10-23T04:53:17.291Z,12.4286
2022-10-23T04:54:17.321Z,12.4286
2022-10-23T04:55:17.351Z,12.3571
2022-10-23T04:56:17.382Z,12.3571
2022-10-23T04:57:17.421Z,12.3571
2022-10-23T04:58:17.456Z,12.3571
2022-10-23T04:59:17.487Z,12.3571
2022-10-23T05:00:17.519Z,12.3571
2022-10-23T05:01:17.675Z,12.2857
2022-10-23T05:02:17.594Z,12.2857
2022-10-23T05:03:17.624Z,12.2857
2022-10-23T05:04:17.660Z,12.2857
2022-10-23T05:05:17.696Z,12.2857
2022-10-23T05:06:17.731Z,12.2857
2022-10-23T05:07:17.808Z,12.2143
2022-10-23T05:08:18.248Z,12.2143
2022-10-23T05:09:17.821Z,12.2143
2022-10-23T05:10:17.859Z,12.2143
2022-10-23T05:11:17.940Z,12.2143
2022-10-23T05:12:17.921Z,12.2143
2022-10-23T05:13:17.967Z,12.2143
2022-10-23T05:14:21.988Z,12.2143
2022-10-23T05:15:18.016Z,12.2143
2022-10-23T05:16:18.049Z,12.2143
2022-10-23T05:17:18.083Z,12.2143
2022-10-23T05:18:18.116Z,12.2143
2022-10-23T05:19:21.931Z,12.2143
2022-10-23T05:20:18.202Z,12.2143
2022-10-23T05:21:18.212Z,12.1429
2022-10-23T05:22:18.248Z,12.1429
2022-10-23T05:23:18.278Z,12.2143
2022-10-23T05:24:18.308Z,12.2143
2022-10-23T05:25:18.350Z,12.2143
2022-10-23T05:26:18.379Z,12.2143
2022-10-23T05:27:18.420Z,12.2143
2022-10-23T05:28:18.452Z,12.2143
2022-10-23T05:29:18.483Z,12.2143
2022-10-23T05:30:18.515Z,12.2143
2022-10-23T05:31:18.549Z,12.2143
2022-10-23T05:32:18.682Z,12.2143
2022-10-23T05:33:18.642Z,12.2857
2022-10-23T05:34:18.681Z,12.2857
2022-10-23T05:35:18.710Z,12.2143
2022-10-23T05:36:18.739Z,12.2143
2022-10-23T05:37:18.771Z,12.2143
2022-10-23T05:38:18.809Z,12.1429
2022-10-23T05:39:18.843Z,12.1429
2022-10-23T05:40:18.866Z,12.1429
2022-10-23T05:41:18.903Z,12.1429
2022-10-23T05:42:18.932Z,12.1429
2022-10-23T05:43:18.964Z,12.2143
2022-10-23T05:44:18.995Z,12.2143
2022-10-23T05:45:19.034Z,12.2143
2022-10-23T05:46:19.071Z,12.2143
2022-10-23T05:47:19.104Z,12.2143
2022-10-23T05:48:33.409Z,12.2143
2022-10-23T05:49:19.184Z,12.2143
2022-10-23T05:50:19.206Z,12.2143
2022-10-23T05:51:19.235Z,12.2143
2022-10-23T05:52:19.270Z,12.2143
2022-10-23T05:53:19.299Z,12.2143
2022-10-23T05:54:19.334Z,12.2143
2022-10-23T05:55:19.372Z,12.2143
2022-10-23T05:56:19.406Z,12.2143
2022-10-23T05:57:19.451Z,12.1429
2022-10-23T05:58:19.461Z,12.1429
2022-10-23T05:59:22.141Z,12.1429
2022-10-23T06:00:19.515Z,12.1429
2022-10-23T06:01:19.580Z,12.0714
2022-10-23T06:02:19.836Z,12.0714
2022-10-23T06:03:19.612Z,12.0714
2022-10-23T06:04:19.639Z,12.0714
2022-10-23T06:05:19.667Z,12.0714
2022-10-23T06:06:19.697Z,12.0714
2022-10-23T06:07:19.734Z,12.0714
2022-10-23T06:08:19.770Z,12.0714
2022-10-23T06:09:19.801Z,12.0714
2022-10-23T06:10:19.836Z,12.0714
2022-10-23T06:11:19.873Z,12.0714
2022-10-23T06:12:19.901Z,12.0714
2022-10-23T06:13:19.939Z,12.0714
2022-10-23T06:14:19.973Z,12.0714
2022-10-23T06:15:20.002Z,12.0714
2022-10-23T06:16:20.038Z,12.0714
2022-10-23T06:17:20.075Z,12.0714
2022-10-23T06:18:20.108Z,12.1429
2022-10-23T06:19:20.141Z,12.0714
2022-10-23T06:20:20.172Z,12.1429
2022-10-23T06:21:20.208Z,12.1429
2022-10-23T06:23:20.274Z,12.0714
2022-10-23T06:24:20.295Z,12.1429
2022-10-23T06:25:20.339Z,12.1429
2022-10-23T06:26:20.386Z,12.1429
2022-10-23T06:27:20.416Z,12.1429
2022-10-23T06:28:20.782Z,12.0714
2022-10-23T06:29:20.494Z,12.1429
2022-10-23T06:30:20.529Z,12.1429
2022-10-23T06:31:20.563Z,12.1429
2022-10-23T06:32:20.605Z,12.1429
2022-10-23T06:33:20.648Z,12.0714
2022-10-23T06:34:20.672Z,12.0714
2022-10-23T06:35:20.701Z,12.0714
2022-10-23T06:36:20.737Z,12.1429
2022-10-23T06:37:20.759Z,12.1429
2022-10-23T06:38:20.793Z,12.1429
2022-10-23T06:39:20.822Z,12.1429
2022-10-23T06:40:20.854Z,12.2143
2022-10-23T06:41:20.941Z,12.2143
2022-10-23T06:42:20.924Z,12.2143
2022-10-23T06:43:20.963Z,12.2857
2022-10-23T06:44:20.991Z,12.2857
2022-10-23T06:45:21.024Z,12.2857
2022-10-23T06:46:21.063Z,12.3571
2022-10-23T06:47:21.104Z,12.3571
2022-10-23T06:48:21.134Z,12.3571
2022-10-23T06:49:21.165Z,12.4286
2022-10-23T06:50:21.191Z,12.4286
2022-10-23T06:51:21.217Z,12.5
2022-10-23T06:52:45.490Z,12.5
2022-10-23T06:53:21.283Z,12.5714
2022-10-23T06:54:21.313Z,12.5714
2022-10-23T06:55:21.340Z,12.6429
2022-10-23T06:56:21.367Z,12.6429
2022-10-23T06:57:21.409Z,12.6429
2022-10-23T06:58:21.508Z,12.7143
2022-10-23T06:59:21.485Z,12.7143
2022-10-23T07:00:21.513Z,12.7143
2022-10-23T07:01:21.655Z,12.7857
2022-10-23T07:02:21.579Z,12.7857
2022-10-23T07:03:21.607Z,12.7857
2022-10-23T07:04:21.638Z,12.7857
2022-10-23T07:05:21.670Z,12.8571
2022-10-23T07:06:21.700Z,12.8571
2022-10-23T07:07:21.730Z,12.9286
2022-10-23T07:08:21.764Z,12.9286
2022-10-23T07:09:21.790Z,12.9286
2022-10-23T07:10:21.819Z,13
2022-10-23T07:11:21.855Z,13
2022-10-23T07:12:21.889Z,13.0714
2022-10-23T07:13:21.921Z,13.0714
2022-10-23T07:14:21.943Z,13.0714
2022-10-23T07:15:21.979Z,13.1429
2022-10-23T07:16:22.008Z,13.1429
2022-10-23T07:17:22.033Z,13.2143
2022-10-23T07:18:22.108Z,13.2143
2022-10-23T07:19:22.091Z,13.2857
2022-10-23T07:20:22.124Z,13.2857
2022-10-23T07:21:22.158Z,13.3571
2022-10-23T07:22:22.181Z,13.3571
2022-10-23T07:23:22.209Z,13.4286
2022-10-23T07:24:22.252Z,13.4286
2022-10-23T07:25:22.283Z,13.5
2022-10-23T07:26:22.317Z,13.5
2022-10-23T07:27:22.345Z,13.5714
2022-10-23T07:28:22.385Z,13.5714
2022-10-23T07:29:22.411Z,13.6429
2022-10-23T07:30:22.443Z,13.7143
2022-10-23T07:31:25.642Z,13.7143
2022-10-23T07:32:22.513Z,13.7857
2022-10-23T07:33:22.549Z,13.7857
2022-10-23T07:34:22.579Z,13.8571
2022-10-23T07:35:22.605Z,13.8571
2022-10-23T07:36:22.643Z,13.9286
2022-10-23T07:37:22.664Z,13.9286
2022-10-23T07:38:22.700Z,14
2022-10-23T07:39:22.733Z,14
2022-10-23T07:40:22.761Z,14.0714
2022-10-23T07:41:22.785Z,14.0714
2022-10-23T07:42:22.818Z,14.0714
2022-10-23T07:43:22.909Z,14.1429
2022-10-23T07:44:25.619Z,14.1429
2022-10-23T07:45:22.927Z,14.2143
2022-10-23T07:46:22.957Z,14.2143
2022-10-23T07:47:22.989Z,14.2857
2022-10-23T07:48:23.019Z,14.2857
2022-10-23T07:49:23.056Z,14.3571
2022-10-23T07:50:23.088Z,14.3571
2022-10-23T07:51:23.122Z,14.4286
2022-10-23T07:52:23.151Z,14.5
2022-10-23T07:53:23.181Z,14.5
2022-10-23T07:54:23.215Z,14.5714
2022-10-23T07:55:23.245Z,14.5714
2022-10-23T07:56:23.277Z,14.6429
2022-10-23T07:57:23.314Z,14.6429
2022-10-23T07:58:23.342Z,14.7143
2022-10-23T07:59:23.381Z,14.7143
2022-10-23T08:01:23.484Z,14.7857
2022-10-23T08:02:23.501Z,14.8571
2022-10-23T08:03:23.501Z,14.8571
2022-10-23T08:04:23.535Z,14.9286
2022-10-23T08:05:23.575Z,14.9286
2022-10-23T08:06:23.603Z,14.9286
2022-10-23T08:07:23.640Z,15
2022-10-23T08:08:23.673Z,15
2022-10-23T08:09:23.705Z,15
2022-10-23T08:10:23.780Z,15
2022-10-23T08:11:23.764Z,15.0714
2022-10-23T08:12:23.799Z,15.0714
2022-10-23T08:13:23.820Z,15.0714
2022-10-23T08:14:23.856Z,15.0714
2022-10-23T08:15:23.891Z,15.1429
2022-10-23T08:16:23.923Z,15.1429
2022-10-23T08:17:26.285Z,15.1429
2022-10-23T08:18:23.995Z,15.1429
2022-10-23T08:19:24.020Z,15.1429
2022-10-23T08:20:24.062Z,15.2143
2022-10-23T08:21:24.094Z,15.2143
2022-10-23T08:22:24.118Z,15.2143
2022-10-23T08:23:24.158Z,15.2143
2022-10-23T08:24:24.179Z,15.2143
2022-10-23T08:25:25.174Z,15.2143
2022-10-23T08:26:24.241Z,15.2857
2022-10-23T08:27:24.275Z,15.2857
2022-10-23T08:28:24.304Z,15.2857
2022-10-23T08:29:24.334Z,15.2857
2022-10-23T08:30:24.369Z,15.2857
2022-10-23T08:31:24.422Z,15.2857
2022-10-23T08:32:24.437Z,15.2857
2022-10-23T08:33:24.474Z,15.2857
2022-10-23T08:34:24.503Z,15.3571
2022-10-23T08:35:24.531Z,15.2857
2022-10-23T08:36:24.566Z,15.3571
2022-10-23T08:37:24.597Z,15.3571
2022-10-23T08:38:24.628Z,15.3571
2022-10-23T08:39:24.649Z,15.3571
2022-10-23T08:40:24.687Z,15.3571
2022-10-23T08:41:24.732Z,15.3571
2022-10-23T08:42:24.755Z,15.3571
2022-10-23T08:43:24.792Z,15.4286
2022-10-23T08:44:24.824Z,15.4286
2022-10-23T08:45:24.861Z,15.4286
2022-10-23T08:46:24.890Z,15.4286
2022-10-23T08:47:24.918Z,15.5
2022-10-23T08:48:24.952Z,15.5
2022-10-23T08:49:24.982Z,15.5
2022-10-23T08:50:25.045Z,15.5
2022-10-23T08:51:25.043Z,15.5
2022-10-23T08:52:25.071Z,15.5
2022-10-23T08:53:25.103Z,15.5
2022-10-23T08:54:25.139Z,15.5714
2022-10-23T08:55:25.170Z,15.5714
2022-10-23T08:56:25.200Z,15.5714
2022-10-23T08:57:25.223Z,15.5714
2022-10-23T08:58:25.255Z,15.6429
2022-10-23T08:59:25.286Z,15.6429
2022-10-23T09:00:25.318Z,15.6429
2022-10-23T09:01:25.555Z,15.6429
2022-10-23T09:02:25.477Z,15.6429
2022-10-23T09:03:25.407Z,15.7143
2022-10-23T09:04:25.443Z,15.7143
2022-10-23T09:05:25.482Z,15.7143
2022-10-23T09:06:25.504Z,15.7857
2022-10-23T09:07:25.535Z,15.7857
2022-10-23T09:08:25.570Z,15.7857
2022-10-23T09:09:25.604Z,15.7857
2022-10-23T09:10:25.627Z,15.8571
2022-10-23T09:11:25.660Z,15.8571
2022-10-23T09:12:25.696Z,15.9286
2022-10-23T09:13:25.726Z,15.9286
2022-10-23T09:14:25.753Z,16
2022-10-23T09:15:25.784Z,16
2022-10-23T09:16:25.811Z,16
2022-10-23T09:17:25.846Z,16.0714
2022-10-23T09:18:25.880Z,16.0714
2022-10-23T09:19:25.923Z,16.1429
2022-10-23T09:20:25.953Z,16.1429
2022-10-23T09:21:25.978Z,16.2143
2022-10-23T09:22:26.010Z,16.2143
2022-10-23T09:23:26.040Z,16.2857
2022-10-23T09:24:26.069Z,16.2857
2022-10-23T09:25:26.096Z,16.3571
2022-10-23T09:26:26.131Z,16.3571
2022-10-23T09:27:26.164Z,16.4286
2022-10-23T09:28:26.204Z,16.4286
2022-10-23T09:29:26.234Z,16.5
2022-10-23T09:30:26.258Z,16.5
2022-10-23T09:31:26.292Z,16.5714
2022-10-23T09:32:26.314Z,16.5714
2022-10-23T09:33:26.352Z,16.6429
2022-10-23T09:34:26.384Z,16.6429
2022-10-23T09:35:26.417Z,16.6429
2022-10-23T09:36:26.445Z,16.7143
2022-10-23T09:37:26.472Z,16.7143
2022-10-23T09:38:26.499Z,16.7143
2022-10-23T09:39:26.534Z,16.7857
2022-10-23T09:40:26.563Z,16.7857
2022-10-23T09:41:26.588Z,16.8571
2022-10-23T09:42:26.626Z,16.8571
2022-10-23T09:43:26.644Z,16.9286
2022-10-23T09:44:26.677Z,16.9286
2022-10-23T09:45:26.703Z,16.9286
2022-10-23T09:46:26.733Z,17
2022-10-23T09:47:26.767Z,17
2022-10-23T09:48:26.802Z,17
2022-10-23T09:49:26.838Z,17
2022-10-23T09:50:26.874Z,17.0714
2022-10-23T09:51:26.910Z,17.0714
2022-10-23T09:52:26.940Z,17.0714
2022-10-23T09:53:26.981Z,17.1429
2022-10-23T09:54:27.016Z,17.1429
2022-10-23T09:55:27.057Z,17.1429
2022-10-23T09:56:27.085Z,17.1429
2022-10-23T09:57:27.124Z,17.1429
2022-10-23T09:58:27.157Z,17.2143
2022-10-23T09:59:27.193Z,17.2143
2022-10-23T10:00:27.226Z,17.2143
2022-10-23T10:01:27.373Z,17.2857
2022-10-23T10:02:27.309Z,17.2857
2022-10-23T10:03:27.328Z,17.2857
2022-10-23T10:04:27.354Z,17.2857
2022-10-23T10:05:27.387Z,17.3571
2022-10-23T10:06:27.461Z,17.3571
2022-10-23T10:07:27.448Z,17.3571
2022-10-23T10:08:27.475Z,17.4286
2022-10-23T10:09:27.503Z,17.4286
2022-10-23T10:10:27.548Z,17.4286
2022-10-23T10:11:27.573Z,17.5
2022-10-23T10:12:27.608Z,17.5
2022-10-23T10:13:27.640Z,17.5
2022-10-23T10:14:27.673Z,17.5714
2022-10-23T10:15:27.718Z,17.5714
2022-10-23T10:16:27.791Z,17.5714
2022-10-23T10:17:27.778Z,17.6429
2022-10-23T10:18:27.817Z,17.6429
2022-10-23T10:19:27.845Z,17.6429
2022-10-23T10:20:27.877Z,17.7143
2022-10-23T10:21:27.917Z,17.7143
2022-10-23T10:22:27.952Z,17.7143
2022-10-23T10:23:27.984Z,17.7857
2022-10-23T10:24:28.010Z,17.7857
2022-10-23T10:25:28.047Z,17.7857
2022-10-23T10:27:28.117Z,17.8571
2022-10-23T10:28:28.151Z,17.8571
2022-10-23T10:29:28.185Z,17.9286
2022-10-23T10:30:28.212Z,17.9286
2022-10-23T10:31:28.249Z,17.9286
2022-10-23T10:32:28.279Z,18
2022-10-23T10:33:28.302Z,18
2022-10-23T10:34:28.330Z,18.0714
2022-10-23T10:35:28.367Z,18.0714
2022-10-23T10:36:28.409Z,18.1429
2022-10-23T10:37:28.430Z,18.1429
2022-10-23T10:38:28.457Z,18.1429
2022-10-23T10:39:28.487Z,18.1429
2022-10-23T10:40:28.516Z,18.2143
2022-10-23T10:41:28.551Z,18.2143
2022-10-23T10:42:28.577Z,18.2143
2022-10-23T10:43:28.601Z,18.2857
2022-10-23T10:44:28.635Z,18.2857
2022-10-23T10:45:28.666Z,18.2857
2022-10-23T10:46:28.697Z,18.3571
2022-10-23T10:47:28.725Z,18.3571
2022-10-23T10:48:28.760Z,18.3571
2022-10-23T10:49:28.788Z,18.4286
2022-10-23T10:50:28.822Z,18.4286
2022-10-23T10:51:28.863Z,18.4286
2022-10-23T10:52:28.913Z,18.4286
2022-10-23T10:53:28.921Z,18.4286
2022-10-23T10:54:28.952Z,18.4286
2022-10-23T10:55:28.987Z,18.5
2022-10-23T10:56:29.025Z,18.5
2022-10-23T10:57:29.058Z,18.5
2022-10-23T10:58:29.085Z,18.5
2022-10-23T10:59:29.117Z,18.5714
2022-10-23T11:00:29.153Z,18.6429
2022-10-23T11:01:29.256Z,18.6429
2022-10-23T11:02:29.209Z,18.7143
2022-10-23T11:03:29.234Z,18.7857
2022-10-23T11:04:29.261Z,18.7857
2022-10-23T11:05:29.294Z,18.7857
2022-10-23T11:06:29.328Z,18.8571
2022-10-23T11:07:29.357Z,18.8571
2022-10-23T11:08:29.373Z,18.9286
2022-10-23T11:09:29.402Z,18.9286
2022-10-23T11:10:29.431Z,19
2022-10-23T11:11:29.455Z,19
2022-10-23T11:12:29.486Z,19.0714
2022-10-23T11:13:29.520Z,19.1429
2022-10-23T11:14:29.548Z,19.1429
2022-10-23T11:15:29.581Z,19.1429
2022-10-23T11:16:29.611Z,19.2143
2022-10-23T11:17:29.644Z,19.2143
2022-10-23T11:18:29.685Z,19.2857
2022-10-23T11:19:29.713Z,19.2857
2022-10-23T11:20:29.746Z,19.2857
2022-10-23T11:21:29.771Z,19.3571
2022-10-23T11:22:29.799Z,19.3571
2022-10-23T11:23:29.826Z,19.3571
2022-10-23T11:24:29.857Z,19.4286
2022-10-23T11:25:29.886Z,19.4286
2022-10-23T11:26:29.914Z,19.4286
2022-10-23T11:27:29.944Z,19.5
2022-10-23T11:28:29.973Z,19.5
2022-10-23T11:29:30.009Z,19.5
2022-10-23T11:30:30.031Z,19.5
2022-10-23T11:31:30.072Z,19.5
2022-10-23T11:32:30.128Z,19.5
2022-10-23T11:33:30.118Z,19.5
2022-10-23T11:34:30.143Z,19.5
2022-10-23T11:35:30.182Z,19.5
2022-10-23T11:36:30.213Z,19.5
2022-10-23T11:37:30.238Z,19.5714
2022-10-23T11:38:30.263Z,19.5714
2022-10-23T11:39:30.299Z,19.5714
2022-10-23T11:40:30.333Z,19.5714
2022-10-23T11:41:30.366Z,19.5714
2022-10-23T11:42:30.396Z,19.5714
2022-10-23T11:43:30.417Z,19.5714
2022-10-23T11:44:30.450Z,19.5714
2022-10-23T11:45:30.492Z,19.5
2022-10-23T11:46:30.522Z,19.5
2022-10-23T11:47:32.853Z,19.5
2022-10-23T11:48:30.584Z,19.5
2022-10-23T11:49:30.618Z,19.5
2022-10-23T11:50:30.649Z,19.5
2022-10-23T11:51:30.680Z,19.5
2022-10-23T11:52:30.712Z,19.5
2022-10-23T11:53:30.750Z,19.5
2022-10-23T11:54:30.774Z,19.5
2022-10-23T11:55:30.811Z,19.5
2022-10-23T11:56:30.842Z,19.5
2022-10-23T11:58:30.901Z,19.5
2022-10-23T11:59:30.939Z,19.5
2022-10-23T12:00:30.965Z,19.5
2022-10-23T12:01:31.076Z,19.5
2022-10-23T12:02:31.095Z,19.5
2022-10-23T12:03:31.054Z,19.5714
2022-10-23T12:04:31.093Z,19.5714
2022-10-23T12:05:31.127Z,19.5714
2022-10-23T12:06:31.152Z,19.6429
2022-10-23T12:07:31.188Z,19.6429
2022-10-23T12:08:31.221Z,19.6429
2022-10-23T12:09:31.250Z,19.6429
2022-10-23T12:10:31.278Z,19.6429
2022-10-23T12:11:31.306Z,19.6429
2022-10-23T12:12:31.338Z,19.6429
2022-10-23T12:13:31.372Z,19.6429
2022-10-23T12:14:31.406Z,19.6429
2022-10-23T12:15:31.442Z,19.6429
2022-10-23T12:16:31.481Z,19.7143
2022-10-23T12:17:31.499Z,19.7143
2022-10-23T12:18:31.545Z,19.7143
2022-10-23T12:19:31.562Z,19.7143
2022-10-23T12:20:31.583Z,19.7143
2022-10-23T12:21:31.625Z,19.7143
2022-10-23T12:22:31.713Z,19.7143
2022-10-23T12:23:31.680Z,19.7143
2022-10-23T12:24:31.719Z,19.7143
2022-10-23T12:25:31.740Z,19.7143